sensor_id;sensor_type;location;lat;lon;timestamp;P1;durP1;ratioP1;P2;durP2;ratioP2
19434;SDS011;9853;50.848;4.108;2024-03-02T07:39:59;2.08;;;0.20;;
19434;SDS011;9853;50.848;4.108;2024-03-02T09:30:57;0.80;;;0.30;;
19434;SDS011;9853;50.848;4.108;2024-03-02T09:33:21;2.33;;;0.50;;
19434;SDS011;9853;50.848;4.108;2024-03-02T09:35:49;2.35;;;0.13;;
19434;SDS011;9853;50.848;4.108;2024-03-02T09:38:06;0.98;;;0.32;;
19434;SDS011;9853;50.848;4.108;2024-03-02T09:50:18;6.40;;;0.82;;
19434;SDS011;9853;50.848;4.108;2024-03-02T10:13:19;0.57;;;0.30;;
19434;SDS011;9853;50.848;4.108;2024-03-02T10:35:20;3.97;;;0.30;;
19434;SDS011;9853;50.848;4.108;2024-03-02T10:57:25;1.85;;;0.30;;
19434;SDS011;9853;50.848;4.108;2024-03-02T11:07:43;7.90;;;0.73;;
19434;SDS011;9853;50.848;4.108;2024-03-02T13:16:27;1.45;;;0.25;;
19434;SDS011;9853;50.848;4.108;2024-03-02T13:19:50;0.80;;;0.30;;
19434;SDS011;9853;50.848;4.108;2024-03-02T13:23:42;2.17;;;0.40;;
19434;SDS011;9853;50.848;4.108;2024-03-02T13:26:42;0.70;;;0.10;;
19434;SDS011;9853;50.848;4.108;2024-03-02T13:34:18;3.85;;;0.45;;
19434;SDS011;9853;50.848;4.108;2024-03-02T14:06:46;2.00;;;0.30;;
19434;SDS011;9853;50.848;4.108;2024-03-02T14:09:39;4.75;;;0.45;;
19434;SDS011;9853;50.848;4.108;2024-03-02T14:12:12;0.95;;;0.17;;
19434;SDS011;9853;50.848;4.108;2024-03-02T14:14:35;2.60;;;0.28;;
19434;SDS011;9853;50.848;4.108;2024-03-02T14:17:03;0.75;;;0.28;;
19434;SDS011;9853;50.848;4.108;2024-03-02T14:19:46;1.67;;;0.00;;
19434;SDS011;9853;50.848;4.108;2024-03-02T14:25:47;0.45;;;0.22;;
19434;SDS011;9853;50.848;4.108;2024-03-02T14:41:58;0.25;;;0.13;;
19434;SDS011;9853;50.848;4.108;2024-03-02T14:44:10;1.20;;;0.32;;
19434;SDS011;9853;50.848;4.108;2024-03-02T14:46:15;4.82;;;0.77;;
19434;SDS011;9853;50.848;4.108;2024-03-02T14:48:25;2.30;;;0.20;;
19434;SDS011;9853;50.848;4.108;2024-03-02T14:50:47;0.28;;;0.13;;
19434;SDS011;9853;50.848;4.108;2024-03-02T14:52:55;2.42;;;0.32;;
19434;SDS011;9853;50.848;4.108;2024-03-02T14:55:22;1.20;;;0.20;;
19434;SDS011;9853;50.848;4.108;2024-03-02T14:57:26;2.28;;;0.45;;
19434;SDS011;9853;50.848;4.108;2024-03-02T14:59:58;0.98;;;0.20;;
19434;SDS011;9853;50.848;4.108;2024-03-02T15:02:15;0.73;;;0.40;;
19434;SDS011;9853;50.848;4.108;2024-03-02T15:04:24;4.75;;;0.30;;
19434;SDS011;9853;50.848;4.108;2024-03-02T15:06:54;0.52;;;0.20;;
19434;SDS011;9853;50.848;4.108;2024-03-02T15:11:59;0.13;;;0.10;;
19434;SDS011;9853;50.848;4.108;2024-03-02T15:14:34;3.13;;;0.50;;
19434;SDS011;9853;50.848;4.108;2024-03-02T15:17:00;3.72;;;0.25;;
19434;SDS011;9853;50.848;4.108;2024-03-02T15:19:12;0.20;;;0.05;;
19434;SDS011;9853;50.848;4.108;2024-03-02T15:21:37;1.80;;;0.32;;
19434;SDS011;9853;50.848;4.108;2024-03-02T15:23:55;1.77;;;0.20;;
19434;SDS011;9853;50.848;4.108;2024-03-02T15:26:14;0.35;;;0.20;;
19434;SDS011;9853;50.848;4.108;2024-03-02T15:28:48;1.35;;;0.25;;
19434;SDS011;9853;50.848;4.108;2024-03-02T15:31:27;2.20;;;0.15;;
19434;SDS011;9853;50.848;4.108;2024-03-02T15:33:48;3.80;;;0.10;;
19434;SDS011;9853;50.848;4.108;2024-03-02T15:39:28;0.50;;;0.17;;
19434;SDS011;9853;50.848;4.108;2024-03-02T15:41:35;1.10;;;0.20;;
19434;SDS011;9853;50.848;4.108;2024-03-02T15:43:48;0.10;;;0.10;;
19434;SDS011;9853;50.848;4.108;2024-03-02T15:45:59;0.75;;;0.15;;
19434;SDS011;9853;50.848;4.108;2024-03-02T15:49:03;0.50;;;0.30;;
19434;SDS011;9853;50.848;4.108;2024-03-02T15:51:14;5.35;;;0.20;;
19434;SDS011;9853;50.848;4.108;2024-03-02T15:53:58;4.47;;;0.30;;
19434;SDS011;9853;50.848;4.108;2024-03-02T15:55:59;0.32;;;0.20;;
19434;SDS011;9853;50.848;4.108;2024-03-02T15:58:07;3.13;;;0.20;;
19434;SDS011;9853;50.848;4.108;2024-03-02T16:00:11;0.20;;;0.10;;
19434;SDS011;9853;50.848;4.108;2024-03-02T16:02:22;1.70;;;0.40;;
19434;SDS011;9853;50.848;4.108;2024-03-02T16:04:32;3.65;;;0.60;;
19434;SDS011;9853;50.848;4.108;2024-03-02T16:06:40;1.40;;;0.47;;
19434;SDS011;9853;50.848;4.108;2024-03-02T16:08:59;4.45;;;0.43;;
19434;SDS011;9853;50.848;4.108;2024-03-02T16:11:29;1.88;;;0.57;;
19434;SDS011;9853;50.848;4.108;2024-03-02T16:13:40;0.40;;;0.20;;
19434;SDS011;9853;50.848;4.108;2024-03-02T16:15:59;0.40;;;0.20;;
19434;SDS011;9853;50.848;4.108;2024-03-02T16:18:18;2.03;;;0.30;;
19434;SDS011;9853;50.848;4.108;2024-03-02T16:20:48;0.50;;;0.28;;
19434;SDS011;9853;50.848;4.108;2024-03-02T16:22:52;1.55;;;0.32;;
19434;SDS011;9853;50.848;4.108;2024-03-02T16:24:55;4.45;;;0.80;;
19434;SDS011;9853;50.848;4.108;2024-03-02T16:27:02;0.55;;;0.25;;
19434;SDS011;9853;50.848;4.108;2024-03-02T16:29:12;1.98;;;0.25;;
19434;SDS011;9853;50.848;4.108;2024-03-02T16:31:20;0.55;;;0.30;;
19434;SDS011;9853;50.848;4.108;2024-03-02T16:33:25;1.20;;;0.30;;
19434;SDS011;9853;50.848;4.108;2024-03-02T16:35:26;2.53;;;0.85;;
19434;SDS011;9853;50.848;4.108;2024-03-02T16:37:54;3.55;;;0.20;;
19434;SDS011;9853;50.848;4.108;2024-03-02T16:40:15;1.90;;;0.32;;
19434;SDS011;9853;50.848;4.108;2024-03-02T16:42:42;0.30;;;0.28;;
19434;SDS011;9853;50.848;4.108;2024-03-02T16:44:59;1.80;;;0.30;;
19434;SDS011;9853;50.848;4.108;2024-03-02T16:47:01;0.77;;;0.38;;
19434;SDS011;9853;50.848;4.108;2024-03-02T16:49:06;3.50;;;0.50;;
19434;SDS011;9853;50.848;4.108;2024-03-02T16:51:19;2.35;;;0.40;;
19434;SDS011;9853;50.848;4.108;2024-03-02T16:53:25;5.68;;;0.85;;
19434;SDS011;9853;50.848;4.108;2024-03-02T16:56:16;1.27;;;0.40;;
19434;SDS011;9853;50.848;4.108;2024-03-02T16:58:40;0.47;;;0.30;;
19434;SDS011;9853;50.848;4.108;2024-03-02T17:00:51;0.40;;;0.20;;
19434;SDS011;9853;50.848;4.108;2024-03-02T17:03:01;0.40;;;0.20;;
19434;SDS011;9853;50.848;4.108;2024-03-02T17:05:02;0.40;;;0.30;;
19434;SDS011;9853;50.848;4.108;2024-03-02T17:07:12;1.20;;;0.40;;
19434;SDS011;9853;50.848;4.108;2024-03-02T17:09:29;2.03;;;0.50;;
19434;SDS011;9853;50.848;4.108;2024-03-02T17:12:17;0.60;;;0.40;;
19434;SDS011;9853;50.848;4.108;2024-03-02T17:14:18;0.93;;;0.20;;
19434;SDS011;9853;50.848;4.108;2024-03-02T17:16:36;1.85;;;0.60;;
19434;SDS011;9853;50.848;4.108;2024-03-02T17:18:48;3.50;;;0.40;;
19434;SDS011;9853;50.848;4.108;2024-03-02T17:20:59;0.68;;;0.38;;
19434;SDS011;9853;50.848;4.108;2024-03-02T17:23:20;0.10;;;0.10;;
19434;SDS011;9853;50.848;4.108;2024-03-02T17:25:42;0.88;;;0.40;;
19434;SDS011;9853;50.848;4.108;2024-03-02T17:27:45;0.60;;;0.20;;
19434;SDS011;9853;50.848;4.108;2024-03-02T17:29:57;3.38;;;0.50;;
19434;SDS011;9853;50.848;4.108;2024-03-02T17:32:08;0.77;;;0.40;;
19434;SDS011;9853;50.848;4.108;2024-03-02T17:34:17;1.38;;;0.28;;
19434;SDS011;9853;50.848;4.108;2024-03-02T17:36:47;2.42;;;0.40;;
19434;SDS011;9853;50.848;4.108;2024-03-02T17:38:58;0.73;;;0.30;;
19434;SDS011;9853;50.848;4.108;2024-03-02T17:41:24;1.50;;;0.43;;
19434;SDS011;9853;50.848;4.108;2024-03-02T17:43:28;0.82;;;0.30;;
19434;SDS011;9853;50.848;4.108;2024-03-02T17:45:33;4.63;;;0.63;;
19434;SDS011;9853;50.848;4.108;2024-03-02T17:47:34;0.20;;;0.13;;
19434;SDS011;9853;50.848;4.108;2024-03-02T17:49:43;1.23;;;0.50;;
19434;SDS011;9853;50.848;4.108;2024-03-02T17:51:44;0.57;;;0.38;;
19434;SDS011;9853;50.848;4.108;2024-03-02T17:53:53;1.23;;;0.43;;
19434;SDS011;9853;50.848;4.108;2024-03-02T17:56:21;0.50;;;0.40;;
19434;SDS011;9853;50.848;4.108;2024-03-02T17:58:31;0.57;;;0.40;;
19434;SDS011;9853;50.848;4.108;2024-03-02T18:00:55;0.55;;;0.30;;
19434;SDS011;9853;50.848;4.108;2024-03-02T18:03:03;0.55;;;0.20;;
19434;SDS011;9853;50.848;4.108;2024-03-02T18:05:10;0.38;;;0.30;;
19434;SDS011;9853;50.848;4.108;2024-03-02T18:10:20;1.15;;;0.40;;
19434;SDS011;9853;50.848;4.108;2024-03-02T18:12:21;0.95;;;0.40;;
19434;SDS011;9853;50.848;4.108;2024-03-02T18:14:23;0.22;;;0.17;;
19434;SDS011;9853;50.848;4.108;2024-03-02T18:19:11;0.80;;;0.40;;
19434;SDS011;9853;50.848;4.108;2024-03-02T18:30:46;3.97;;;0.75;;
19434;SDS011;9853;50.848;4.108;2024-03-02T18:33:04;1.02;;;0.45;;
19434;SDS011;9853;50.848;4.108;2024-03-02T18:35:42;0.88;;;0.47;;
19434;SDS011;9853;50.848;4.108;2024-03-02T18:38:19;0.80;;;0.32;;
19434;SDS011;9853;50.848;4.108;2024-03-02T18:46:09;2.00;;;0.60;;
19434;SDS011;9853;50.848;4.108;2024-03-02T18:48:18;0.77;;;0.60;;
19434;SDS011;9853;50.848;4.108;2024-03-02T18:50:31;0.70;;;0.60;;
19434;SDS011;9853;50.848;4.108;2024-03-02T19:41:09;0.57;;;0.40;;
19434;SDS011;9853;50.848;4.108;2024-03-02T19:53:46;2.25;;;0.80;;
19434;SDS011;9853;50.848;4.108;2024-03-02T19:56:31;1.08;;;0.43;;
19434;SDS011;9853;50.848;4.108;2024-03-02T20:03:47;3.40;;;0.70;;
19434;SDS011;9853;50.848;4.108;2024-03-02T20:10:27;0.75;;;0.50;;
19434;SDS011;9853;50.848;4.108;2024-03-02T20:13:05;0.80;;;0.40;;
19434;SDS011;9853;50.848;4.108;2024-03-02T20:16:23;1.63;;;0.75;;
19434;SDS011;9853;50.848;4.108;2024-03-02T20:41:53;1.67;;;0.80;;
19434;SDS011;9853;50.848;4.108;2024-03-02T20:49:08;2.35;;;0.57;;
19434;SDS011;9853;50.848;4.108;2024-03-02T20:52:13;1.65;;;0.75;;
19434;SDS011;9853;50.848;4.108;2024-03-02T20:55:48;0.60;;;0.43;;
19434;SDS011;9853;50.848;4.108;2024-03-02T20:59:08;2.55;;;1.10;;
19434;SDS011;9853;50.848;4.108;2024-03-02T21:08:37;2.35;;;0.70;;
19434;SDS011;9853;50.848;4.108;2024-03-02T21:11:28;2.53;;;1.08;;
19434;SDS011;9853;50.848;4.108;2024-03-02T21:14:16;2.33;;;0.98;;
19434;SDS011;9853;50.848;4.108;2024-03-02T21:17:08;2.85;;;0.93;;
19434;SDS011;9853;50.848;4.108;2024-03-02T21:19:26;2.60;;;1.00;;
19434;SDS011;9853;50.848;4.108;2024-03-02T21:21:43;1.50;;;0.63;;
19434;SDS011;9853;50.848;4.108;2024-03-02T21:23:57;3.92;;;1.10;;
19434;SDS011;9853;50.848;4.108;2024-03-02T21:27:04;2.15;;;0.88;;
19434;SDS011;9853;50.848;4.108;2024-03-02T21:29:53;3.13;;;1.45;;
19434;SDS011;9853;50.848;4.108;2024-03-02T21:32:40;2.63;;;1.10;;
19434;SDS011;9853;50.848;4.108;2024-03-02T21:35:21;2.60;;;1.10;;
19434;SDS011;9853;50.848;4.108;2024-03-02T21:37:47;3.42;;;0.90;;
19434;SDS011;9853;50.848;4.108;2024-03-02T21:40:30;3.70;;;1.02;;
19434;SDS011;9853;50.848;4.108;2024-03-02T21:46:27;1.13;;;0.60;;
19434;SDS011;9853;50.848;4.108;2024-03-02T21:48:50;2.05;;;0.88;;
19434;SDS011;9853;50.848;4.108;2024-03-02T21:51:19;1.50;;;0.75;;
19434;SDS011;9853;50.848;4.108;2024-03-02T21:54:08;1.60;;;0.55;;
19434;SDS011;9853;50.848;4.108;2024-03-02T21:59:40;0.70;;;0.60;;
19434;SDS011;9853;50.848;4.108;2024-03-02T22:02:56;0.75;;;0.52;;
19434;SDS011;9853;50.848;4.108;2024-03-02T22:08:44;1.38;;;0.77;;
19434;SDS011;9853;50.848;4.108;2024-03-02T22:19:43;0.98;;;0.70;;
19434;SDS011;9853;50.848;4.108;2024-03-02T22:22:07;1.48;;;0.60;;
19434;SDS011;9853;50.848;4.108;2024-03-02T22:34:41;1.13;;;0.60;;
19434;SDS011;9853;50.848;4.108;2024-03-02T22:36:59;0.88;;;0.52;;
19434;SDS011;9853;50.848;4.108;2024-03-02T22:45:12;0.38;;;0.32;;
19434;SDS011;9853;50.848;4.108;2024-03-02T22:48:13;0.70;;;0.40;;
19434;SDS011;9853;50.848;4.108;2024-03-02T22:54:04;1.35;;;0.55;;
19434;SDS011;9853;50.848;4.108;2024-03-02T22:59:29;1.30;;;0.77;;
19434;SDS011;9853;50.848;4.108;2024-03-02T23:05:47;3.28;;;0.70;;
19434;SDS011;9853;50.848;4.108;2024-03-02T23:08:47;4.25;;;2.15;;
19434;SDS011;9853;50.848;4.108;2024-03-02T23:11:25;5.22;;;1.33;;
19434;SDS011;9853;50.848;4.108;2024-03-02T23:13:46;3.38;;;1.52;;
